Time;durP1;ratioP1;P1;durP2;ratioP2;P2;SDS_P1;SDS_P2;PMS_P1;PMS_P2;Temp;Humidity;BMP_temperature;BMP_pressure;BME280_temperature;BME280_humidity;BME280_pressure;Samples;Min_cycle;Max_cycle;Signal;HPM_P1;HPM_P2
2022/10/07 00:00:24;;;;;;;0.00;0.00;;;;;;;;;;1740549;28;20214;-70
2022/10/07 00:01:16;;;;;;;0.00;0.00;;;;;;;;;;1746699;28;20588;-69
2022/10/07 00:02:07;;;;;;;0.00;0.00;;;;;;;;;;1746741;28;20660;-69
2022/10/07 00:02:58;;;;;;;0.00;0.00;;;;;;;;;;1747008;28;20209;-69
2022/10/07 00:03:50;;;;;;;0.00;0.00;;;;;;;;;;1746672;28;20268;-69
2022/10/07 00:04:44;;;;;;;0.00;0.00;;;;;;;;;;1746984;28;20651;-69
2022/10/07 00:05:36;;;;;;;0.00;0.00;;;;;;;;;;1747138;28;20194;-69
2022/10/07 00:06:28;;;;;;;0.00;0.00;;;;;;;;;;1747008;28;20198;-69
2022/10/07 00:07:19;;;;;;;0.00;0.00;;;;;;;;;;1746489;28;20313;-69
2022/10/07 00:08:11;;;;;;;0.00;0.00;;;;;;;;;;1743744;28;20198;-69
2022/10/07 00:09:02;;;;;;;0.00;0.00;;;;;;;;;;1746051;28;20720;-69
2022/10/07 00:09:54;;;;;;;0.00;0.00;;;;;;;;;;1747383;28;20244;-69
2022/10/07 00:10:46;;;;;;;0.00;0.00;;;;;;;;;;1746504;28;20221;-69
2022/10/07 00:11:38;;;;;;;0.00;0.00;;;;;;;;;;1747243;28;20271;-70
2022/10/07 00:12:29;;;;;;;0.00;0.00;;;;;;;;;;1746143;28;20627;-70
2022/10/07 00:13:21;;;;;;;0.00;0.00;;;;;;;;;;1747140;28;20198;-70
2022/10/07 00:14:13;;;;;;;0.00;0.00;;;;;;;;;;1746319;28;20660;-70
2022/10/07 00:15:05;;;;;;;0.00;0.00;;;;;;;;;;1747445;28;20649;-70
2022/10/07 00:16:02;;;;;;;0.00;0.00;;;;;;;;;;1746443;28;20210;-70
2022/10/07 00:16:54;;;;;;;0.00;0.00;;;;;;;;;;1747115;28;20198;-70
2022/10/07 00:17:45;;;;;;;0.00;0.00;;;;;;;;;;1746346;28;20341;-70
2022/10/07 00:18:37;;;;;;;0.00;0.00;;;;;;;;;;1747287;28;20198;-70
2022/10/07 00:19:28;;;;;;;0.00;0.00;;;;;;;;;;1745707;28;20241;-70
2022/10/07 00:20:20;;;;;;;0.00;0.00;;;;;;;;;;1747709;28;20202;-70
2022/10/07 00:21:13;;;;;;;0.00;0.00;;;;;;;;;;1746139;28;20292;-70
2022/10/07 00:22:05;;;;;;;0.00;0.00;;;;;;;;;;1746980;28;20218;-70
2022/10/07 00:22:56;;;;;;;0.00;0.00;;;;;;;;;;1746556;28;20279;-70
2022/10/07 00:23:48;;;;;;;0.00;0.00;;;;;;;;;;1746574;28;20210;-70
2022/10/07 00:24:39;;;;;;;0.00;0.00;;;;;;;;;;1744577;28;20639;-70
2022/10/07 00:25:31;;;;;;;0.00;0.00;;;;;;;;;;1746543;28;20225;-70
2022/10/07 00:26:24;;;;;;;0.00;0.00;;;;;;;;;;1747178;28;20230;-70
2022/10/07 00:27:16;;;;;;;0.00;0.00;;;;;;;;;;1746170;28;20687;-70
2022/10/07 00:28:07;;;;;;;0.00;0.00;;;;;;;;;;1747239;28;20628;-70
2022/10/07 00:29:00;;;;;;;0.00;0.00;;;;;;;;;;1746589;28;20206;-70
2022/10/07 00:29:51;;;;;;;0.00;0.00;;;;;;;;;;1746852;28;20197;-70
2022/10/07 00:30:43;;;;;;;0.00;0.00;;;;;;;;;;1746774;28;20586;-70
2022/10/07 00:31:35;;;;;;;0.05;0.05;;;;;;;;;;1746987;28;20683;-69
2022/10/07 00:32:27;;;;;;;0.00;0.00;;;;;;;;;;1746292;28;20199;-69
2022/10/07 00:33:18;;;;;;;0.00;0.00;;;;;;;;;;1747315;28;20245;-69
2022/10/07 00:34:11;;;;;;;0.00;0.00;;;;;;;;;;1746023;28;20777;-69
2022/10/07 00:35:06;;;;;;;0.00;0.00;;;;;;;;;;1747173;28;20635;-69
2022/10/07 00:35:58;;;;;;;0.00;0.00;;;;;;;;;;1746124;28;20565;-69
2022/10/07 00:36:49;;;;;;;0.00;0.00;;;;;;;;;;1746480;28;20664;-69
2022/10/07 00:37:42;;;;;;;0.00;0.00;;;;;;;;;;1746313;28;20651;-70
2022/10/07 00:38:33;;;;;;;0.00;0.00;;;;;;;;;;1746969;28;20256;-69
2022/10/07 00:39:25;;;;;;;0.00;0.00;;;;;;;;;;1745985;28;20245;-69
2022/10/07 00:40:16;;;;;;;0.00;0.00;;;;;;;;;;1747296;28;20297;-69
2022/10/07 00:41:09;;;;;;;0.00;0.00;;;;;;;;;;1745842;28;20225;-69
2022/10/07 00:42:02;;;;;;;0.00;0.00;;;;;;;;;;1746968;28;20613;-69
2022/10/07 00:42:54;;;;;;;0.00;0.00;;;;;;;;;;1746069;28;20214;-69
2022/10/07 00:43:46;;;;;;;0.00;0.00;;;;;;;;;;1746709;28;20293;-69
2022/10/07 00:44:40;;;;;;;0.00;0.00;;;;;;;;;;1746320;28;20198;-69
2022/10/07 00:45:31;;;;;;;0.00;0.00;;;;;;;;;;1746499;28;20206;-69
2022/10/07 00:46:28;;;;;;;0.00;0.00;;;;;;;;;;1747034;28;20679;-70
2022/10/07 00:47:23;;;;;;;0.00;0.00;;;;;;;;;;1745353;28;20209;-70
2022/10/07 00:48:18;;;;;;;0.00;0.00;;;;;;;;;;1747161;28;20701;-70
2022/10/07 00:49:12;;;;;;;0.00;0.00;;;;;;;;;;1746214;28;20270;-70
2022/10/07 00:50:06;;;;;;;0.00;0.00;;;;;;;;;;1747538;28;20212;-70
2022/10/07 00:50:58;;;;;;;0.00;0.00;;;;;;;;;;1745885;28;20463;-69
2022/10/07 00:51:50;;;;;;;0.00;0.00;;;;;;;;;;1746683;28;20578;-69
2022/10/07 00:52:44;;;;;;;0.00;0.00;;;;;;;;;;1745840;28;20222;-69
2022/10/07 00:53:37;;;;;;;0.00;0.00;;;;;;;;;;1747034;28;20214;-69
2022/10/07 00:54:29;;;;;;;0.00;0.00;;;;;;;;;;1746335;28;20198;-69
2022/10/07 00:55:21;;;;;;;0.00;0.00;;;;;;;;;;1747263;28;20225;-69
2022/10/07 00:56:16;;;;;;;0.00;0.00;;;;;;;;;;1746002;28;20214;-69
2022/10/07 00:57:09;;;;;;;0.00;0.00;;;;;;;;;;1746343;28;20210;-69
2022/10/07 00:58:03;;;;;;;0.00;0.00;;;;;;;;;;1744815;28;20202;-69
2022/10/07 00:58:55;;;;;;;0.00;0.00;;;;;;;;;;1746444;28;20300;-69
2022/10/07 00:59:47;;;;;;;0.00;0.00;;;;;;;;;;1744267;28;20202;-69
2022/10/07 01:00:39;;;;;;;0.00;0.00;;;;;;;;;;1741525;28;20514;-69
2022/10/07 01:01:31;;;;;;;0.00;0.00;;;;;;;;;;1747033;28;20715;-70
2022/10/07 01:02:22;;;;;;;0.00;0.00;;;;;;;;;;1746361;28;20264;-70
2022/10/07 01:03:15;;;;;;;0.00;0.00;;;;;;;;;;1746962;28;20206;-70
2022/10/07 01:04:06;;;;;;;0.00;0.00;;;;;;;;;;1746805;28;20706;-70
2022/10/07 01:04:58;;;;;;;0.00;0.00;;;;;;;;;;1746378;28;20212;-70
2022/10/07 01:05:50;;;;;;;0.00;0.00;;;;;;;;;;1747178;28;20635;-70
2022/10/07 01:06:41;;;;;;;0.00;0.00;;;;;;;;;;1746666;28;20648;-70
2022/10/07 01:07:33;;;;;;;0.00;0.00;;;;;;;;;;1746786;28;20663;-70
2022/10/07 01:08:25;;;;;;;0.00;0.00;;;;;;;;;;1746822;28;20613;-70
2022/10/07 01:09:19;;;;;;;0.00;0.00;;;;;;;;;;1746738;28;20217;-70
2022/10/07 01:10:14;;;;;;;0.00;0.00;;;;;;;;;;1747334;28;20198;-70
2022/10/07 01:11:12;;;;;;;0.00;0.00;;;;;;;;;;1746566;28;20871;-70
2022/10/07 01:12:08;;;;;;;0.00;0.00;;;;;;;;;;1746659;28;20194;-70
2022/10/07 01:13:04;;;;;;;0.00;0.00;;;;;;;;;;1746528;28;20431;-70
2022/10/07 01:14:01;;;;;;;0.00;0.00;;;;;;;;;;1746719;28;20273;-70
2022/10/07 01:14:55;;;;;;;0.00;0.00;;;;;;;;;;1746695;28;20293;-70
2022/10/07 01:15:51;;;;;;;0.00;0.00;;;;;;;;;;1747011;28;20202;-70
2022/10/07 01:16:47;;;;;;;0.00;0.00;;;;;;;;;;1746680;28;20198;-70
2022/10/07 01:17:45;;;;;;;0.00;0.00;;;;;;;;;;1746657;28;20563;-70
2022/10/07 01:18:41;;;;;;;0.00;0.00;;;;;;;;;;1746901;28;20277;-70
2022/10/07 01:19:41;;;;;;;0.00;0.00;;;;;;;;;;1746313;28;20870;-70
2022/10/07 01:20:34;;;;;;;0.00;0.00;;;;;;;;;;1747037;28;20241;-70
2022/10/07 01:21:34;;;;;;;0.00;0.00;;;;;;;;;;1746517;28;20288;-69
2022/10/07 01:22:29;;;;;;;0.00;0.00;;;;;;;;;;1746306;28;20225;-69
2022/10/07 01:23:26;;;;;;;0.00;0.00;;;;;;;;;;1746807;28;20222;-69
2022/10/07 01:24:24;;;;;;;0.00;0.00;;;;;;;;;;1746623;28;20229;-69
2022/10/07 01:25:25;;;;;;;0.00;0.00;;;;;;;;;;1747193;28;20195;-69
2022/10/07 01:26:35;;;;;;;0.00;0.00;;;;;;;;;;1746685;28;20194;-69
2022/10/07 01:27:28;;;;;;;0.00;0.00;;;;;;;;;;1746060;28;20612;-69
2022/10/07 01:28:20;;;;;;;0.00;0.00;;;;;;;;;;1746836;28;20624;-69
2022/10/07 01:29:14;;;;;;;0.00;0.00;;;;;;;;;;1746428;28;20221;-69
2022/10/07 01:30:06;;;;;;;0.00;0.00;;;;;;;;;;1747159;28;20569;-69
2022/10/07 01:31:00;;;;;;;0.00;0.00;;;;;;;;;;1746533;28;20202;-70
2022/10/07 01:31:54;;;;;;;0.00;0.00;;;;;;;;;;1746269;28;20252;-70
2022/10/07 01:32:51;;;;;;;0.00;0.00;;;;;;;;;;1746143;28;20206;-70
2022/10/07 01:33:44;;;;;;;0.00;0.00;;;;;;;;;;1746597;28;20293;-70
2022/10/07 01:34:37;;;;;;;0.00;0.00;;;;;;;;;;1746001;28;20418;-70
2022/10/07 01:35:32;;;;;;;0.00;0.00;;;;;;;;;;1745843;28;20206;-70
2022/10/07 01:36:25;;;;;;;0.00;0.00;;;;;;;;;;1739420;28;20231;-69
2022/10/07 01:37:17;;;;;;;0.00;0.00;;;;;;;;;;1739547;28;20283;-70
2022/10/07 01:38:11;;;;;;;0.00;0.00;;;;;;;;;;1739378;28;20228;-69
2022/10/07 01:39:04;;;;;;;0.00;0.00;;;;;;;;;;1739675;28;20298;-69
2022/10/07 01:39:57;;;;;;;0.10;0.10;;;;;;;;;;1739676;28;20206;-69
2022/10/07 01:40:53;;;;;;;0.00;0.00;;;;;;;;;;1739928;28;20230;-69
2022/10/07 01:41:46;;;;;;;0.00;0.00;;;;;;;;;;1739675;28;20623;-70
2022/10/07 01:42:38;;;;;;;0.00;0.00;;;;;;;;;;1739078;28;20237;-70
2022/10/07 01:43:30;;;;;;;0.00;0.00;;;;;;;;;;1739976;28;20686;-70
2022/10/07 01:44:21;;;;;;;0.00;0.00;;;;;;;;;;1739367;28;20771;-70
2022/10/07 01:45:15;;;;;;;0.00;0.00;;;;;;;;;;1740156;28;20530;-70
2022/10/07 01:46:08;;;;;;;0.00;0.00;;;;;;;;;;1739305;28;20214;-70
2022/10/07 01:47:00;;;;;;;0.00;0.00;;;;;;;;;;1739904;28;20532;-70
2022/10/07 01:47:51;;;;;;;0.00;0.00;;;;;;;;;;1739215;28;20258;-70
2022/10/07 01:48:45;;;;;;;0.00;0.00;;;;;;;;;;1739708;28;20206;-70
2022/10/07 01:49:36;;;;;;;0.00;0.00;;;;;;;;;;1739668;28;20671;-70
2022/10/07 01:50:29;;;;;;;0.00;0.00;;;;;;;;;;1739929;28;20285;-70
2022/10/07 01:51:21;;;;;;;0.00;0.00;;;;;;;;;;1737517;28;20230;-69
2022/10/07 01:52:20;;;;;;;0.00;0.00;;;;;;;;;;1738613;28;20217;-69
2022/10/07 01:53:26;;;;;;;0.00;0.00;;;;;;;;;;1739580;28;20518;-69
2022/10/07 01:54:24;;;;;;;0.00;0.00;;;;;;;;;;1739377;28;20202;-69
2022/10/07 01:55:27;;;;;;;0.00;0.00;;;;;;;;;;1740189;28;20199;-69
2022/10/07 01:56:34;;;;;;;0.00;0.00;;;;;;;;;;1739704;28;20214;-70
2022/10/07 01:57:31;;;;;;;0.00;0.00;;;;;;;;;;1739498;28;20332;-69
2022/10/07 01:58:30;;;;;;;0.00;0.00;;;;;;;;;;1739655;28;20646;-69
2022/10/07 01:59:30;;;;;;;0.00;0.00;;;;;;;;;;1739545;28;20199;-69
2022/10/07 02:00:23;;;;;;;0.00;0.00;;;;;;;;;;1733165;28;20215;-69
2022/10/07 02:01:16;;;;;;;0.00;0.00;;;;;;;;;;1739167;28;20211;-70
2022/10/07 02:02:15;;;;;;;0.00;0.00;;;;;;;;;;1739266;28;20233;-70
2022/10/07 02:03:13;;;;;;;0.00;0.00;;;;;;;;;;1739685;28;20241;-70
2022/10/07 02:04:12;;;;;;;0.00;0.00;;;;;;;;;;1739420;28;20191;-70
2022/10/07 02:05:11;;;;;;;0.00;0.00;;;;;;;;;;1739544;28;20215;-70
2022/10/07 02:06:05;;;;;;;0.00;0.00;;;;;;;;;;1739514;28;20348;-69
2022/10/07 02:07:00;;;;;;;0.00;0.00;;;;;;;;;;1739705;28;20253;-69
2022/10/07 02:07:58;;;;;;;0.00;0.00;;;;;;;;;;1739396;28;20685;-69
2022/10/07 02:08:52;;;;;;;0.00;0.00;;;;;;;;;;1739356;28;20211;-69
2022/10/07 02:09:45;;;;;;;0.00;0.00;;;;;;;;;;1739804;28;20271;-69
2022/10/07 02:10:42;;;;;;;0.00;0.00;;;;;;;;;;1739803;28;20268;-69
2022/10/07 02:11:38;;;;;;;0.00;0.00;;;;;;;;;;1739708;28;20258;-69
2022/10/07 02:12:34;;;;;;;0.00;0.00;;;;;;;;;;1739224;28;20201;-69
2022/10/07 02:13:28;;;;;;;0.00;0.00;;;;;;;;;;1739533;28;20303;-69
2022/10/07 02:14:22;;;;;;;0.00;0.00;;;;;;;;;;1739367;28;20199;-69
2022/10/07 02:15:15;;;;;;;0.00;0.00;;;;;;;;;;1739811;28;20238;-69
2022/10/07 02:16:10;;;;;;;0.00;0.00;;;;;;;;;;1739555;28;20618;-70
2022/10/07 02:17:03;;;;;;;0.00;0.00;;;;;;;;;;1739664;28;20688;-70
2022/10/07 02:17:57;;;;;;;0.00;0.00;;;;;;;;;;1739395;28;20202;-70
2022/10/07 02:18:50;;;;;;;0.00;0.00;;;;;;;;;;1739538;28;20241;-70
2022/10/07 02:19:44;;;;;;;0.00;0.00;;;;;;;;;;1739319;28;20679;-70
2022/10/07 02:20:37;;;;;;;0.00;0.00;;;;;;;;;;1739995;28;20298;-70
2022/10/07 02:21:30;;;;;;;0.00;0.00;;;;;;;;;;1739329;28;20558;-71
2022/10/07 02:22:24;;;;;;;0.00;0.00;;;;;;;;;;1739181;28;20241;-70
2022/10/07 02:23:18;;;;;;;0.00;0.00;;;;;;;;;;1739624;28;20202;-70
2022/10/07 02:24:11;;;;;;;0.00;0.00;;;;;;;;;;1739463;28;20242;-70
2022/10/07 02:25:06;;;;;;;0.00;0.00;;;;;;;;;;1739599;28;20686;-70
2022/10/07 02:25:57;;;;;;;0.00;0.00;;;;;;;;;;1739461;28;20235;-69
2022/10/07 02:26:50;;;;;;;0.00;0.00;;;;;;;;;;1739577;28;20267;-69
2022/10/07 02:27:44;;;;;;;0.00;0.00;;;;;;;;;;1739406;28;20237;-69
2022/10/07 02:28:39;;;;;;;0.00;0.00;;;;;;;;;;1739753;28;20264;-69
2022/10/07 02:29:32;;;;;;;0.00;0.00;;;;;;;;;;1739612;28;20207;-69
2022/10/07 02:30:24;;;;;;;0.10;0.10;;;;;;;;;;1740482;28;20187;-69
2022/10/07 02:31:16;;;;;;;0.00;0.00;;;;;;;;;;1739890;28;20250;-70
2022/10/07 02:32:11;;;;;;;0.00;0.00;;;;;;;;;;1739360;28;20631;-70
2022/10/07 02:33:04;;;;;;;0.00;0.00;;;;;;;;;;1739593;28;20293;-70
2022/10/07 02:33:57;;;;;;;0.00;0.00;;;;;;;;;;1739189;28;20213;-70
2022/10/07 02:34:50;;;;;;;0.00;0.00;;;;;;;;;;1739226;28;20245;-70
2022/10/07 02:35:44;;;;;;;0.00;0.00;;;;;;;;;;1739473;28;20277;-70
2022/10/07 02:36:37;;;;;;;0.00;0.00;;;;;;;;;;1739645;28;20237;-69
2022/10/07 02:37:31;;;;;;;0.00;0.00;;;;;;;;;;1739219;28;20272;-69
2022/10/07 02:38:24;;;;;;;0.00;0.00;;;;;;;;;;1739508;28;20199;-69
2022/10/07 02:39:16;;;;;;;0.00;0.00;;;;;;;;;;1739286;28;20213;-69
2022/10/07 02:40:07;;;;;;;0.00;0.00;;;;;;;;;;1739609;28;20238;-69
2022/10/07 02:41:02;;;;;;;0.00;0.00;;;;;;;;;;1739296;28;20260;-70
2022/10/07 02:41:55;;;;;;;0.00;0.00;;;;;;;;;;1739164;28;20260;-70
2022/10/07 02:42:52;;;;;;;0.00;0.00;;;;;;;;;;1739185;28;20206;-70
2022/10/07 02:43:46;;;;;;;0.00;0.00;;;;;;;;;;1739790;28;20307;-70
2022/10/07 02:44:41;;;;;;;0.00;0.00;;;;;;;;;;1739527;28;20511;-70
2022/10/07 02:45:38;;;;;;;0.00;0.00;;;;;;;;;;1739548;28;20191;-70
2022/10/07 02:46:32;;;;;;;0.00;0.00;;;;;;;;;;1739438;28;20304;-70
2022/10/07 02:47:27;;;;;;;0.00;0.00;;;;;;;;;;1739379;28;20368;-70
2022/10/07 02:48:22;;;;;;;0.00;0.00;;;;;;;;;;1739489;28;20226;-70
2022/10/07 02:49:15;;;;;;;0.00;0.00;;;;;;;;;;1739407;28;20261;-70
2022/10/07 02:50:09;;;;;;;0.00;0.00;;;;;;;;;;1739810;28;20202;-70
2022/10/07 02:51:05;;;;;;;0.00;0.00;;;;;;;;;;1739309;28;20620;-70
2022/10/07 02:51:59;;;;;;;0.00;0.00;;;;;;;;;;1739454;28;20207;-70
2022/10/07 02:52:53;;;;;;;0.00;0.00;;;;;;;;;;1738962;28;20250;-70
2022/10/07 02:53:45;;;;;;;0.00;0.00;;;;;;;;;;1739727;28;20617;-70
2022/10/07 02:54:38;;;;;;;0.00;0.00;;;;;;;;;;1739050;28;20314;-70
2022/10/07 02:55:30;;;;;;;0.00;0.00;;;;;;;;;;1739917;28;20207;-70
2022/10/07 02:56:23;;;;;;;0.00;0.00;;;;;;;;;;1739259;28;20521;-70
2022/10/07 02:57:17;;;;;;;0.00;0.00;;;;;;;;;;1739557;28;20230;-70
2022/10/07 02:58:11;;;;;;;0.00;0.00;;;;;;;;;;1739623;28;20207;-70
2022/10/07 02:59:03;;;;;;;0.00;0.00;;;;;;;;;;1739027;28;20291;-70
2022/10/07 02:59:57;;;;;;;0.00;0.00;;;;;;;;;;1736044;28;20709;-70
2022/10/07 03:00:51;;;;;;;0.00;0.00;;;;;;;;;;1735383;28;20389;-70
2022/10/07 03:01:46;;;;;;;0.00;0.00;;;;;;;;;;1739422;28;20199;-70
2022/10/07 03:02:39;;;;;;;0.00;0.00;;;;;;;;;;1739003;28;20200;-70
2022/10/07 03:03:31;;;;;;;0.00;0.00;;;;;;;;;;1739431;28;20291;-70
2022/10/07 03:04:22;;;;;;;0.00;0.00;;;;;;;;;;1738910;28;20578;-70
2022/10/07 03:05:19;;;;;;;0.00;0.00;;;;;;;;;;1739815;28;20211;-70
2022/10/07 03:06:11;;;;;;;0.00;0.00;;;;;;;;;;1739263;28;20617;-69
2022/10/07 03:07:03;;;;;;;0.00;0.00;;;;;;;;;;1739428;28;20199;-69
2022/10/07 03:07:56;;;;;;;0.00;0.00;;;;;;;;;;1739131;28;20250;-69
2022/10/07 03:08:48;;;;;;;0.00;0.00;;;;;;;;;;1739425;28;20231;-69
2022/10/07 03:09:39;;;;;;;0.10;0.10;;;;;;;;;;1739510;28;20230;-69
2022/10/07 03:10:31;;;;;;;0.00;0.00;;;;;;;;;;1739833;28;20207;-69
2022/10/07 03:11:22;;;;;;;0.00;0.00;;;;;;;;;;1740916;28;20242;-69
2022/10/07 03:12:14;;;;;;;0.00;0.00;;;;;;;;;;1740293;28;20585;-69
2022/10/07 03:13:05;;;;;;;0.00;0.00;;;;;;;;;;1740441;28;20675;-69
2022/10/07 03:13:59;;;;;;;0.00;0.00;;;;;;;;;;1740637;28;20427;-69
2022/10/07 03:14:50;;;;;;;0.00;0.00;;;;;;;;;;1740418;28;20249;-69
2022/10/07 03:15:42;;;;;;;0.00;0.00;;;;;;;;;;1740873;28;20198;-69
2022/10/07 03:16:33;;;;;;;0.00;0.00;;;;;;;;;;1740757;28;20692;-70
2022/10/07 03:17:25;;;;;;;0.00;0.00;;;;;;;;;;1740067;28;20544;-70
2022/10/07 03:18:27;;;;;;;0.00;0.00;;;;;;;;;;1740813;28;20734;-70
2022/10/07 03:19:18;;;;;;;0.00;0.00;;;;;;;;;;1740315;28;20195;-70
2022/10/07 03:20:10;;;;;;;0.00;0.00;;;;;;;;;;1740984;28;20290;-70
2022/10/07 03:21:01;;;;;;;0.00;0.00;;;;;;;;;;1740269;28;20240;-69
2022/10/07 03:21:53;;;;;;;0.00;0.00;;;;;;;;;;1740445;28;20232;-69
2022/10/07 03:22:45;;;;;;;0.00;0.00;;;;;;;;;;1740459;28;20587;-69
2022/10/07 03:23:37;;;;;;;0.00;0.00;;;;;;;;;;1740733;28;20202;-69
2022/10/07 03:24:29;;;;;;;0.00;0.00;;;;;;;;;;1740592;28;20282;-69
2022/10/07 03:25:21;;;;;;;0.00;0.00;;;;;;;;;;1741135;28;20209;-69
2022/10/07 03:26:12;;;;;;;0.00;0.00;;;;;;;;;;1740594;28;20234;-69
2022/10/07 03:27:06;;;;;;;0.00;0.00;;;;;;;;;;1740986;28;20211;-69
2022/10/07 03:27:57;;;;;;;0.00;0.00;;;;;;;;;;1740136;28;20207;-69
2022/10/07 03:28:49;;;;;;;0.00;0.00;;;;;;;;;;1740533;28;20313;-69
2022/10/07 03:29:41;;;;;;;0.00;0.00;;;;;;;;;;1740448;28;20226;-69
2022/10/07 03:30:33;;;;;;;0.00;0.00;;;;;;;;;;1741000;28;20582;-69
2022/10/07 03:31:26;;;;;;;0.00;0.00;;;;;;;;;;1740440;28;20229;-70
2022/10/07 03:32:17;;;;;;;0.00;0.00;;;;;;;;;;1740229;28;20203;-70
2022/10/07 03:33:09;;;;;;;0.00;0.00;;;;;;;;;;1740418;28;20298;-70
2022/10/07 03:34:00;;;;;;;0.00;0.00;;;;;;;;;;1740286;28;20241;-70
2022/10/07 03:34:53;;;;;;;0.00;0.00;;;;;;;;;;1740547;28;20213;-70
2022/10/07 03:35:44;;;;;;;0.00;0.00;;;;;;;;;;1740477;28;20284;-70
2022/10/07 03:36:37;;;;;;;0.00;0.00;;;;;;;;;;1740746;28;20522;-69
2022/10/07 03:37:29;;;;;;;0.00;0.00;;;;;;;;;;1740349;28;20234;-69
2022/10/07 03:38:21;;;;;;;0.00;0.00;;;;;;;;;;1740388;28;20206;-69
2022/10/07 03:39:12;;;;;;;0.00;0.00;;;;;;;;;;1740621;28;20537;-69
2022/10/07 03:40:05;;;;;;;0.00;0.00;;;;;;;;;;1740915;28;20260;-69
2022/10/07 03:40:56;;;;;;;0.00;0.00;;;;;;;;;;1740411;28;20238;-69
2022/10/07 03:41:49;;;;;;;0.00;0.00;;;;;;;;;;1740262;28;20207;-69
2022/10/07 03:42:42;;;;;;;0.00;0.00;;;;;;;;;;1740248;28;20203;-69
2022/10/07 03:43:34;;;;;;;0.00;0.00;;;;;;;;;;1740599;28;20203;-69
2022/10/07 03:44:25;;;;;;;0.00;0.00;;;;;;;;;;1740192;28;20670;-69
2022/10/07 03:45:19;;;;;;;0.00;0.00;;;;;;;;;;1741047;28;20207;-69
2022/10/07 03:46:10;;;;;;;0.00;0.00;;;;;;;;;;1740082;28;20203;-69
2022/10/07 03:47:03;;;;;;;0.00;0.00;;;;;;;;;;1740723;28;20203;-69
2022/10/07 03:47:54;;;;;;;0.00;0.00;;;;;;;;;;1740252;28;20211;-69
2022/10/07 03:48:46;;;;;;;0.00;0.00;;;;;;;;;;1740190;28;20588;-69
2022/10/07 03:49:37;;;;;;;0.00;0.00;;;;;;;;;;1740144;28;20207;-69
2022/10/07 03:50:30;;;;;;;0.00;0.00;;;;;;;;;;1740740;28;20559;-69
2022/10/07 03:51:21;;;;;;;0.00;0.00;;;;;;;;;;1740366;28;20226;-70
2022/10/07 03:52:13;;;;;;;0.00;0.00;;;;;;;;;;1739588;28;20211;-70
2022/10/07 03:53:04;;;;;;;0.00;0.00;;;;;;;;;;1740563;28;20596;-70
2022/10/07 03:53:56;;;;;;;0.00;0.00;;;;;;;;;;1740312;28;20237;-70
2022/10/07 03:54:48;;;;;;;0.00;0.00;;;;;;;;;;1740289;28;20257;-70
2022/10/07 03:55:39;;;;;;;0.00;0.00;;;;;;;;;;1740692;28;20697;-70
2022/10/07 03:56:31;;;;;;;0.00;0.00;;;;;;;;;;1740343;28;20231;-69
2022/10/07 03:58:33;;;;;;;0.00;0.00;;;;;;;;;;1740507;28;20183;-69
2022/10/07 03:59:24;;;;;;;0.00;0.00;;;;;;;;;;1740111;28;20245;-69
2022/10/07 04:00:16;;;;;;;0.00;0.00;;;;;;;;;;1734334;28;20210;-69
2022/10/07 04:01:09;;;;;;;0.00;0.00;;;;;;;;;;1738972;28;20245;-69
2022/10/07 04:02:01;;;;;;;0.00;0.00;;;;;;;;;;1740372;28;20207;-69
2022/10/07 04:02:53;;;;;;;0.00;0.00;;;;;;;;;;1740225;28;20245;-69
2022/10/07 04:03:46;;;;;;;0.05;0.05;;;;;;;;;;1740703;28;20539;-69
2022/10/07 04:04:37;;;;;;;0.00;0.00;;;;;;;;;;1739477;28;20420;-69
2022/10/07 04:05:29;;;;;;;0.00;0.00;;;;;;;;;;1740606;28;20199;-69
2022/10/07 04:06:20;;;;;;;0.00;0.00;;;;;;;;;;1740043;28;20257;-70
2022/10/07 04:07:12;;;;;;;0.00;0.00;;;;;;;;;;1740255;28;20210;-70
2022/10/07 04:08:03;;;;;;;0.00;0.00;;;;;;;;;;1740237;28;20234;-70
2022/10/07 04:08:56;;;;;;;0.00;0.00;;;;;;;;;;1739965;28;20232;-70
2022/10/07 04:09:47;;;;;;;0.00;0.00;;;;;;;;;;1740263;28;20245;-70
2022/10/07 04:10:39;;;;;;;0.00;0.00;;;;;;;;;;1740471;28;20522;-70
2022/10/07 04:11:30;;;;;;;0.00;0.00;;;;;;;;;;1740325;28;20313;-69
2022/10/07 04:12:22;;;;;;;0.00;0.00;;;;;;;;;;1739933;28;20195;-69
2022/10/07 04:13:13;;;;;;;0.00;0.00;;;;;;;;;;1740173;28;20213;-69
2022/10/07 04:14:05;;;;;;;0.00;0.00;;;;;;;;;;1739862;28;20233;-69
2022/10/07 04:14:56;;;;;;;0.00;0.00;;;;;;;;;;1740053;28;20669;-69
2022/10/07 04:15:48;;;;;;;0.00;0.00;;;;;;;;;;1740670;28;20674;-69
2022/10/07 04:16:41;;;;;;;0.00;0.00;;;;;;;;;;1740419;28;20263;-69
2022/10/07 04:17:33;;;;;;;0.00;0.00;;;;;;;;;;1740147;28;20206;-69
2022/10/07 04:18:24;;;;;;;0.00;0.00;;;;;;;;;;1740540;28;20246;-69
2022/10/07 04:19:16;;;;;;;0.00;0.00;;;;;;;;;;1740053;28;20202;-69
2022/10/07 04:20:08;;;;;;;0.00;0.00;;;;;;;;;;1740483;28;20234;-69
2022/10/07 04:21:00;;;;;;;0.00;0.00;;;;;;;;;;1739906;28;20203;-69
2022/10/07 04:21:51;;;;;;;0.00;0.00;;;;;;;;;;1740040;28;20746;-69
2022/10/07 04:22:43;;;;;;;0.00;0.00;;;;;;;;;;1740211;28;20536;-69
2022/10/07 04:23:35;;;;;;;0.00;0.00;;;;;;;;;;1740201;28;20281;-69
2022/10/07 04:24:27;;;;;;;0.00;0.00;;;;;;;;;;1740139;28;20664;-69
2022/10/07 04:25:33;;;;;;;0.00;0.00;;;;;;;;;;1740462;28;20636;-69
2022/10/07 04:26:25;;;;;;;0.00;0.00;;;;;;;;;;1740211;28;20223;-70
2022/10/07 04:27:16;;;;;;;0.00;0.00;;;;;;;;;;1739814;28;20261;-70
2022/10/07 04:28:14;;;;;;;0.00;0.00;;;;;;;;;;1740204;28;20230;-70
2022/10/07 04:29:05;;;;;;;0.00;0.00;;;;;;;;;;1739955;28;20211;-70
2022/10/07 04:29:57;;;;;;;0.00;0.00;;;;;;;;;;1740033;28;20725;-70
2022/10/07 04:30:50;;;;;;;0.00;0.00;;;;;;;;;;1740216;28;20699;-70
2022/10/07 04:31:43;;;;;;;0.00;0.00;;;;;;;;;;1740032;28;20611;-70
2022/10/07 04:32:35;;;;;;;0.00;0.00;;;;;;;;;;1739963;28;20716;-70
2022/10/07 04:33:28;;;;;;;0.00;0.00;;;;;;;;;;1740083;28;20199;-70
2022/10/07 04:34:19;;;;;;;0.00;0.00;;;;;;;;;;1739709;28;20215;-70
2022/10/07 04:35:12;;;;;;;0.00;0.00;;;;;;;;;;1740715;28;20207;-70
2022/10/07 04:36:04;;;;;;;0.00;0.00;;;;;;;;;;1739629;28;20241;-70
2022/10/07 04:36:56;;;;;;;0.00;0.00;;;;;;;;;;1740277;28;20253;-70
2022/10/07 04:37:48;;;;;;;0.00;0.00;;;;;;;;;;1739628;28;20222;-70
2022/10/07 04:38:41;;;;;;;0.00;0.00;;;;;;;;;;1740461;28;20195;-70
2022/10/07 04:39:32;;;;;;;0.00;0.00;;;;;;;;;;1739987;28;20432;-70
2022/10/07 04:40:24;;;;;;;0.00;0.00;;;;;;;;;;1740464;28;20272;-70
2022/10/07 04:41:16;;;;;;;0.00;0.00;;;;;;;;;;1739751;28;20763;-69
2022/10/07 04:42:07;;;;;;;0.00;0.00;;;;;;;;;;1739691;28;20322;-69
2022/10/07 04:44:09;;;;;;;0.00;0.00;;;;;;;;;;1739921;28;20310;-69
2022/10/07 04:45:00;;;;;;;0.00;0.00;;;;;;;;;;1740197;28;20589;-69
2022/10/07 04:45:52;;;;;;;0.00;0.00;;;;;;;;;;1740269;28;20249;-69
2022/10/07 04:46:46;;;;;;;0.00;0.00;;;;;;;;;;1739981;28;20286;-70
2022/10/07 04:47:37;;;;;;;0.00;0.00;;;;;;;;;;1740030;28;20240;-70
2022/10/07 04:48:29;;;;;;;0.00;0.00;;;;;;;;;;1740068;28;20203;-70
2022/10/07 04:49:20;;;;;;;0.00;0.00;;;;;;;;;;1739798;28;20264;-70
2022/10/07 04:50:12;;;;;;;0.00;0.00;;;;;;;;;;1740375;28;20199;-70
2022/10/07 04:51:03;;;;;;;0.00;0.00;;;;;;;;;;1739923;28;20215;-70
2022/10/07 04:51:55;;;;;;;0.00;0.00;;;;;;;;;;1739561;28;20210;-70
2022/10/07 04:52:46;;;;;;;0.00;0.00;;;;;;;;;;1739437;28;20621;-70
2022/10/07 04:53:39;;;;;;;0.00;0.00;;;;;;;;;;1740277;28;20229;-70
2022/10/07 04:54:30;;;;;;;0.00;0.00;;;;;;;;;;1739544;28;20242;-70
2022/10/07 04:55:22;;;;;;;0.00;0.00;;;;;;;;;;1740619;28;20503;-70
2022/10/07 04:56:13;;;;;;;0.00;0.00;;;;;;;;;;1739791;28;20708;-70
2022/10/07 04:57:08;;;;;;;0.00;0.00;;;;;;;;;;1739816;28;20685;-70
2022/10/07 04:57:59;;;;;;;0.00;0.00;;;;;;;;;;1739810;28;20654;-70
2022/10/07 04:58:51;;;;;;;0.00;0.00;;;;;;;;;;1739965;28;20223;-70
2022/10/07 04:59:42;;;;;;;0.00;0.00;;;;;;;;;;1738223;28;20213;-70
2022/10/07 05:00:35;;;;;;;0.00;0.00;;;;;;;;;;1733933;28;20257;-70
2022/10/07 05:01:26;;;;;;;0.00;0.00;;;;;;;;;;1740080;28;20217;-69
2022/10/07 05:02:19;;;;;;;0.00;0.00;;;;;;;;;;1739313;28;20199;-69
2022/10/07 05:03:11;;;;;;;0.00;0.00;;;;;;;;;;1740046;28;20246;-69
2022/10/07 05:04:03;;;;;;;0.00;0.00;;;;;;;;;;1739890;28;20580;-69
2022/10/07 05:04:54;;;;;;;0.00;0.00;;;;;;;;;;1739674;28;20210;-69
2022/10/07 05:05:47;;;;;;;0.00;0.00;;;;;;;;;;1740030;28;20217;-69
2022/10/07 05:06:38;;;;;;;0.00;0.00;;;;;;;;;;1739816;28;20207;-70
2022/10/07 05:07:30;;;;;;;0.00;0.00;;;;;;;;;;1739580;28;20199;-70
2022/10/07 05:08:23;;;;;;;0.00;0.00;;;;;;;;;;1739920;28;20207;-70
2022/10/07 05:09:15;;;;;;;0.00;0.00;;;;;;;;;;1739741;28;20226;-70
2022/10/07 05:10:06;;;;;;;0.00;0.00;;;;;;;;;;1740329;28;20284;-70
2022/10/07 05:10:59;;;;;;;0.00;0.00;;;;;;;;;;1739688;28;20207;-70
2022/10/07 05:11:54;;;;;;;0.00;0.00;;;;;;;;;;1739741;28;20302;-70
2022/10/07 05:12:46;;;;;;;0.00;0.00;;;;;;;;;;1739438;28;20268;-70
2022/10/07 05:13:37;;;;;;;0.00;0.00;;;;;;;;;;1739931;28;20681;-70
2022/10/07 05:14:31;;;;;;;0.00;0.00;;;;;;;;;;1739650;28;20199;-70
2022/10/07 05:15:22;;;;;;;0.00;0.00;;;;;;;;;;1740076;28;20262;-70
2022/10/07 05:16:14;;;;;;;0.00;0.00;;;;;;;;;;1739631;28;20599;-70
2022/10/07 05:17:05;;;;;;;0.00;0.00;;;;;;;;;;1739734;28;20206;-70
2022/10/07 05:17:59;;;;;;;0.00;0.00;;;;;;;;;;1739493;28;20213;-70
2022/10/07 05:18:50;;;;;;;0.00;0.00;;;;;;;;;;1739708;28;20746;-70
2022/10/07 05:19:42;;;;;;;0.00;0.00;;;;;;;;;;1739693;28;20199;-70
2022/10/07 05:20:36;;;;;;;0.00;0.00;;;;;;;;;;1740049;28;20235;-70